createdAt,value
2022-11-05T00:00:37.857Z,21.33
2022-11-05T00:03:23.522Z,21.33
2022-11-05T00:06:11.381Z,21.31
2022-11-05T00:08:57.091Z,21.31
2022-11-05T00:11:43.558Z,21.29
2022-11-05T00:14:28.910Z,21.29
2022-11-05T00:16:55.343Z,21.27
2022-11-05T00:19:21.803Z,21.28
2022-11-05T00:22:06.627Z,21.26
2022-11-05T00:24:51.423Z,21.25
2022-11-05T00:27:17.864Z,21.25
2022-11-05T00:29:44.345Z,21.24
2022-11-05T00:32:13.114Z,21.23
2022-11-05T00:34:39.566Z,21.22
2022-11-05T00:37:05.962Z,21.21
2022-11-05T00:39:32.444Z,21.21
2022-11-05T00:42:17.442Z,21.20
2022-11-05T00:45:02.086Z,21.20
2022-11-05T00:47:48.472Z,21.19
2022-11-05T00:50:15.604Z,21.19
2022-11-05T00:53:02.393Z,21.17
2022-11-05T00:55:40.601Z,21.16
2022-11-05T00:58:18.692Z,21.16
2022-11-05T01:00:55.988Z,21.16
2022-11-05T01:03:25.380Z,21.15
2022-11-05T01:05:54.437Z,21.15
2022-11-05T01:08:22.669Z,21.15
2022-11-05T01:10:52.446Z,21.13
2022-11-05T01:13:21.316Z,21.12
2022-11-05T01:15:48.474Z,21.12
2022-11-05T01:18:14.901Z,21.11
2022-11-05T01:20:41.404Z,21.10
2022-11-05T01:23:13.241Z,21.10
2022-11-05T01:25:41.312Z,21.10
2022-11-05T01:28:09.525Z,21.08
2022-11-05T01:30:36.821Z,21.10
2022-11-05T01:33:03.570Z,21.06
2022-11-05T01:35:30.086Z,21.06
2022-11-05T01:37:56.524Z,21.05
2022-11-05T01:40:23.993Z,21.06
2022-11-05T01:42:50.437Z,21.05
2022-11-05T01:45:23.682Z,21.05
2022-11-05T01:48:08.911Z,21.02
2022-11-05T01:50:47.496Z,21.05
2022-11-05T01:53:41.971Z,21.02
2022-11-05T01:56:29.121Z,21.01
2022-11-05T01:59:20.432Z,20.99
2022-11-05T02:01:47.144Z,20.97
2022-11-05T02:04:19.467Z,20.96
2022-11-05T02:06:46.684Z,20.97
2022-11-05T02:09:20.572Z,20.96
2022-11-05T02:11:48.209Z,20.96
2022-11-05T02:14:14.689Z,20.95
2022-11-05T02:17:00.511Z,20.94
2022-11-05T02:20:03.878Z,20.93
2022-11-05T02:22:50.077Z,20.93
2022-11-05T02:25:42.109Z,20.92
2022-11-05T02:28:32.623Z,20.93
2022-11-05T02:31:33.113Z,20.89
2022-11-05T02:34:02.534Z,20.90
2022-11-05T02:36:46.396Z,20.89
2022-11-05T02:40:03.865Z,20.88
2022-11-05T02:42:30.289Z,20.88
2022-11-05T02:45:30.019Z,20.86
2022-11-05T02:48:05.168Z,20.87
2022-11-05T02:50:44.897Z,20.86
2022-11-05T02:53:18.779Z,20.85
2022-11-05T02:55:47.312Z,20.84
2022-11-05T02:58:13.724Z,20.83
2022-11-05T03:00:57.428Z,20.81
2022-11-05T03:03:45.012Z,20.81
2022-11-05T03:06:26.802Z,20.81
2022-11-05T03:08:53.215Z,20.82
2022-11-05T03:11:26.053Z,20.82
2022-11-05T03:14:03.331Z,20.80
2022-11-05T03:16:41.565Z,20.81
2022-11-05T03:19:17.127Z,20.78
2022-11-05T03:21:53.688Z,20.78
2022-11-05T03:24:49.198Z,20.78
2022-11-05T03:27:19.993Z,20.78
2022-11-05T03:29:51.166Z,20.76
2022-11-05T03:32:20.791Z,20.75
2022-11-05T03:34:51.400Z,20.74
2022-11-05T03:37:20.350Z,20.74
2022-11-05T03:39:52.060Z,20.74
2022-11-05T03:42:23.193Z,20.73
2022-11-05T03:44:54.093Z,20.74
2022-11-05T03:47:26.099Z,20.74
2022-11-05T03:49:58.249Z,20.73
2022-11-05T03:52:29.520Z,20.74
2022-11-05T03:54:56.076Z,20.73
2022-11-05T03:57:29.561Z,20.73
2022-11-05T03:59:56.011Z,20.73
2022-11-05T04:02:25.963Z,20.73
2022-11-05T04:04:53.260Z,20.70
2022-11-05T04:07:38.232Z,20.71
2022-11-05T04:10:23.594Z,20.69
2022-11-05T04:13:08.601Z,20.69
2022-11-05T04:15:53.638Z,20.69
2022-11-05T04:18:20.171Z,20.68
2022-11-05T04:21:05.441Z,20.68
2022-11-05T04:23:50.712Z,20.66
2022-11-05T04:26:17.162Z,20.66
2022-11-05T04:29:07.674Z,20.64
2022-11-05T04:31:36.832Z,20.63
2022-11-05T04:34:03.504Z,20.62
2022-11-05T04:36:29.991Z,20.62
2022-11-05T04:38:56.396Z,20.63
2022-11-05T04:41:23.288Z,20.62
2022-11-05T04:43:49.731Z,20.62
2022-11-05T04:46:16.184Z,20.62
2022-11-05T04:48:42.649Z,20.62
2022-11-05T04:51:09.198Z,20.60
2022-11-05T04:53:35.673Z,20.60
2022-11-05T04:56:23.338Z,20.59
2022-11-05T04:58:50.197Z,20.59
2022-11-05T05:01:19.221Z,20.60
2022-11-05T05:03:50.517Z,20.58
2022-11-05T05:06:18.086Z,20.57
2022-11-05T05:08:44.897Z,20.57
2022-11-05T05:11:13.073Z,20.57
2022-11-05T05:13:39.822Z,20.56
2022-11-05T05:16:08.354Z,20.55
2022-11-05T05:18:35.716Z,20.55
2022-11-05T05:21:21.546Z,20.53
2022-11-05T05:23:48.581Z,20.53
2022-11-05T05:26:16.175Z,20.53
2022-11-05T05:28:42.638Z,20.54
2022-11-05T05:31:09.570Z,20.51
2022-11-05T05:33:36.234Z,20.51
2022-11-05T05:36:07.029Z,20.50
2022-11-05T05:38:36.762Z,20.51
2022-11-05T05:41:03.304Z,20.49
2022-11-05T05:43:33.824Z,20.50
2022-11-05T05:46:09.834Z,20.48
2022-11-05T05:48:36.333Z,20.49
2022-11-05T05:51:08.637Z,20.52
2022-11-05T05:53:36.555Z,20.60
2022-11-05T05:56:03.595Z,20.66
2022-11-05T05:58:38.529Z,20.70
2022-11-05T06:01:08.068Z,20.78
2022-11-05T06:03:34.836Z,20.85
2022-11-05T06:06:06.704Z,20.91
2022-11-05T06:08:33.988Z,21.01
2022-11-05T06:11:01.429Z,21.09
2022-11-05T06:13:28.557Z,21.15
2022-11-05T06:16:00.432Z,21.22
2022-11-05T06:18:26.891Z,21.28
2022-11-05T06:20:53.385Z,21.37
2022-11-05T06:23:19.817Z,21.42
2022-11-05T06:25:46.224Z,21.46
2022-11-05T06:28:12.706Z,21.52
2022-11-05T06:30:39.129Z,21.55
2022-11-05T06:33:05.687Z,21.60
2022-11-05T06:35:32.751Z,21.65
2022-11-05T06:38:01.387Z,21.66
2022-11-05T06:40:30.772Z,21.70
2022-11-05T06:42:57.642Z,21.73
2022-11-05T06:45:24.136Z,21.76
2022-11-05T06:47:57.492Z,21.77
2022-11-05T06:50:25.447Z,21.80
2022-11-05T06:53:00.388Z,21.80
2022-11-05T06:55:29.350Z,21.84
2022-11-05T06:57:56.563Z,21.85
2022-11-05T07:00:23.840Z,21.86
2022-11-05T07:02:50.333Z,21.87
2022-11-05T07:05:17.250Z,21.88
2022-11-05T07:07:45.091Z,21.87
2022-11-05T07:10:14.886Z,21.87
2022-11-05T07:12:42.011Z,21.87
2022-11-05T07:15:10.029Z,21.86
2022-11-05T07:17:36.477Z,21.87
2022-11-05T07:20:04.663Z,21.86
2022-11-05T07:22:31.123Z,21.89
2022-11-05T07:24:57.821Z,21.89
2022-11-05T07:27:24.374Z,21.89
2022-11-05T07:29:50.825Z,21.89
2022-11-05T07:32:17.221Z,21.89
2022-11-05T07:34:43.781Z,21.89
2022-11-05T07:37:10.263Z,21.91
2022-11-05T07:39:36.789Z,21.91
2022-11-05T07:42:03.271Z,21.91
2022-11-05T07:44:29.657Z,21.91
2022-11-05T07:46:56.099Z,21.94
2022-11-05T07:49:23.821Z,21.92
2022-11-05T07:51:50.271Z,21.96
2022-11-05T07:54:16.752Z,21.94
2022-11-05T07:56:43.208Z,21.96
2022-11-05T07:59:09.641Z,21.95
2022-11-05T08:01:36.205Z,21.96
2022-11-05T08:04:03.411Z,21.96
2022-11-05T08:06:29.923Z,21.97
2022-11-05T08:08:56.398Z,22.00
2022-11-05T08:11:22.844Z,22.00
2022-11-05T08:13:49.284Z,22.04
2022-11-05T08:16:15.775Z,22.07
2022-11-05T08:18:42.192Z,22.09
2022-11-05T08:21:09.536Z,22.13
2022-11-05T08:23:36.063Z,22.17
2022-11-05T08:26:03.645Z,22.23
2022-11-05T08:28:30.096Z,22.28
2022-11-05T08:30:57.272Z,22.34
2022-11-05T08:33:24.992Z,22.42
2022-11-05T08:35:51.474Z,22.48
2022-11-05T08:38:19.663Z,22.53
2022-11-05T08:40:54.928Z,22.61
2022-11-05T08:43:21.523Z,22.67
2022-11-05T08:45:48.195Z,22.74
2022-11-05T08:48:16.814Z,22.80
2022-11-05T08:50:45.849Z,22.85
2022-11-05T08:53:13.635Z,22.87
2022-11-05T08:55:40.386Z,22.90
2022-11-05T08:58:12.596Z,22.94
2022-11-05T09:00:39.512Z,22.95
2022-11-05T09:03:07.709Z,22.98
2022-11-05T09:05:38.021Z,22.98
2022-11-05T09:08:09.508Z,22.99
2022-11-05T09:10:37.105Z,22.97
2022-11-05T09:13:04.239Z,22.97
2022-11-05T09:15:31.418Z,22.95
2022-11-05T09:17:57.896Z,22.95
2022-11-05T09:20:24.603Z,22.93
2022-11-05T09:22:51.690Z,22.89
2022-11-05T09:25:18.244Z,22.87
2022-11-05T09:27:44.854Z,22.84
2022-11-05T09:30:12.977Z,22.79
2022-11-05T09:32:39.586Z,22.76
2022-11-05T09:35:07.104Z,22.72
2022-11-05T09:37:33.715Z,22.70
2022-11-05T09:40:00.236Z,22.67
2022-11-05T09:42:34.634Z,22.62
2022-11-05T09:45:05.104Z,22.58
2022-11-05T09:47:39.723Z,22.54
2022-11-05T09:50:16.138Z,22.52
2022-11-05T09:52:42.787Z,22.47
2022-11-05T09:55:32.317Z,22.42
2022-11-05T09:58:07.211Z,22.39
2022-11-05T10:00:34.419Z,22.34
2022-11-05T10:03:08.029Z,22.32
2022-11-05T10:05:36.957Z,22.26
2022-11-05T10:08:10.018Z,22.24
2022-11-05T10:10:41.276Z,22.20
2022-11-05T10:13:35.300Z,22.16
2022-11-05T10:16:20.634Z,22.12
2022-11-05T10:19:06.582Z,22.08
2022-11-05T10:22:04.092Z,22.04
2022-11-05T10:24:21.303Z,22.03
2022-11-05T10:26:51.634Z,22.02
2022-11-05T10:29:26.535Z,21.95
2022-11-05T10:31:55.496Z,21.92
2022-11-05T10:34:26.072Z,21.91
2022-11-05T10:36:54.292Z,21.89
2022-11-05T10:39:21.460Z,21.87
2022-11-05T10:41:54.205Z,21.84
2022-11-05T10:44:47.677Z,21.82
2022-11-05T10:47:30.712Z,21.81
2022-11-05T10:49:59.541Z,21.83
2022-11-05T10:52:39.140Z,21.83
2022-11-05T10:55:24.467Z,21.85
2022-11-05T10:57:51.230Z,21.87
2022-11-05T11:00:18.428Z,21.90
2022-11-05T11:02:47.883Z,21.92
2022-11-05T11:05:28.753Z,21.96
2022-11-05T11:08:02.118Z,21.98
2022-11-05T11:10:32.797Z,22.01
2022-11-05T11:12:59.794Z,22.04
2022-11-05T11:15:32.464Z,22.05
2022-11-05T11:18:17.478Z,22.08
2022-11-05T11:20:46.569Z,22.10
2022-11-05T11:23:15.263Z,22.11
2022-11-05T11:25:53.981Z,22.13
2022-11-05T11:28:26.438Z,22.15
2022-11-05T11:31:01.975Z,22.16
2022-11-05T11:33:29.058Z,22.17
2022-11-05T11:35:56.110Z,22.17
2022-11-05T11:38:24.402Z,22.18
2022-11-05T11:40:51.547Z,22.17
2022-11-05T11:43:28.115Z,22.18
2022-11-05T11:46:02.128Z,22.18
2022-11-05T11:48:35.231Z,22.17
2022-11-05T11:51:16.582Z,22.16
2022-11-05T11:53:43.078Z,22.16
2022-11-05T11:56:12.161Z,22.17
2022-11-05T11:58:53.345Z,22.15
2022-11-05T12:01:47.721Z,22.13
2022-11-05T12:05:08.216Z,22.06
2022-11-05T12:08:03.883Z,22.04
2022-11-05T12:11:08.184Z,21.98
2022-11-05T12:13:52.761Z,21.90
2022-11-05T12:16:36.598Z,21.89
2022-11-05T12:19:44.840Z,21.89
2022-11-05T12:22:26.708Z,21.90
2022-11-05T12:25:14.875Z,21.90
2022-11-05T12:27:53.682Z,21.90
2022-11-05T12:30:21.725Z,21.93
2022-11-05T12:33:06.914Z,21.95
2022-11-05T12:38:34.404Z,21.98
2022-11-05T12:41:21.006Z,21.99
2022-11-05T12:43:47.385Z,22.04
2022-11-05T12:46:51.495Z,22.04
2022-11-05T12:49:57.717Z,22.05
2022-11-05T12:52:27.055Z,22.08
2022-11-05T12:55:05.403Z,22.09
2022-11-05T12:57:35.557Z,22.12
2022-11-05T13:00:27.851Z,22.12
2022-11-05T13:03:09.682Z,22.12
2022-11-05T13:05:40.059Z,22.16
2022-11-05T13:08:11.959Z,22.17
2022-11-05T13:10:49.351Z,22.20
2022-11-05T13:13:41.346Z,22.21
2022-11-05T13:16:26.024Z,22.23
2022-11-05T13:18:56.786Z,22.26
2022-11-05T13:21:25.808Z,22.28
2022-11-05T13:24:07.685Z,22.26
2022-11-05T13:26:49.513Z,22.26
2022-11-05T13:29:26.032Z,22.30
2022-11-05T13:32:02.128Z,22.31
2022-11-05T13:34:32.221Z,22.33
2022-11-05T13:37:21.730Z,22.38
2022-11-05T13:39:55.357Z,22.39
2022-11-05T13:42:46.379Z,22.38
2022-11-05T13:45:50.417Z,22.38
2022-11-05T13:48:25.980Z,22.39
2022-11-05T13:51:23.628Z,22.37
2022-11-05T13:53:52.795Z,22.39
2022-11-05T13:56:46.815Z,22.37
2022-11-05T13:59:51.005Z,22.38
2022-11-05T14:02:36.071Z,22.38
2022-11-05T14:05:03.313Z,22.37
2022-11-05T14:07:45.348Z,22.36
2022-11-05T14:10:17.822Z,22.33
2022-11-05T14:12:50.052Z,22.34
2022-11-05T14:15:21.809Z,22.37
2022-11-05T14:18:05.651Z,22.38
2022-11-05T14:20:32.054Z,22.37
2022-11-05T14:23:23.200Z,22.37
2022-11-05T14:25:57.484Z,22.37
2022-11-05T14:28:38.118Z,22.37
2022-11-05T14:31:47.273Z,22.37
2022-11-05T14:34:15.575Z,22.38
2022-11-05T14:37:02.729Z,22.41
2022-11-05T14:39:31.451Z,22.39
2022-11-05T14:42:02.039Z,22.39
2022-11-05T14:44:30.857Z,22.38
2022-11-05T14:47:01.457Z,22.38
2022-11-05T14:49:32.173Z,22.39
2022-11-05T14:52:05.927Z,22.39
2022-11-05T14:54:50.728Z,22.42
2022-11-05T14:57:43.029Z,22.44
2022-11-05T15:00:29.433Z,22.51
2022-11-05T15:02:58.378Z,22.58
2022-11-05T15:05:51.206Z,22.63
2022-11-05T15:08:24.749Z,22.65
2022-11-05T15:10:54.260Z,22.70
2022-11-05T15:13:31.327Z,22.75
2022-11-05T15:15:58.119Z,22.74
2022-11-05T15:18:40.641Z,22.75
2022-11-05T15:21:10.532Z,22.78
2022-11-05T15:23:41.994Z,22.79
2022-11-05T15:26:13.236Z,22.79
2022-11-05T15:28:46.582Z,22.77
2022-11-05T15:31:12.963Z,22.75
2022-11-05T15:33:47.647Z,22.72
2022-11-05T15:36:27.529Z,22.69
2022-11-05T15:39:23.081Z,22.67
2022-11-05T15:41:40.919Z,22.63
2022-11-05T15:44:24.464Z,22.59
2022-11-05T15:47:05.657Z,22.53
2022-11-05T15:49:34.946Z,22.52
2022-11-05T15:52:01.546Z,22.50
2022-11-05T15:54:30.621Z,22.48
2022-11-05T15:56:58.948Z,22.43
2022-11-05T15:59:27.732Z,22.40
2022-11-05T16:01:58.199Z,22.38
2022-11-05T16:04:32.042Z,22.36
2022-11-05T16:07:01.636Z,22.32
2022-11-05T16:12:14.787Z,22.25
2022-11-05T16:14:41.898Z,22.21
2022-11-05T16:17:21.051Z,22.16
2022-11-05T16:19:48.736Z,22.14
2022-11-05T16:22:15.748Z,22.12
2022-11-05T16:24:42.936Z,22.11
2022-11-05T16:27:21.117Z,22.07
2022-11-05T16:29:51.211Z,22.04
2022-11-05T16:32:31.110Z,22.02
2022-11-05T16:35:04.896Z,21.98
2022-11-05T16:37:40.965Z,21.96
2022-11-05T16:40:22.885Z,21.91
2022-11-05T16:42:51.984Z,21.91
2022-11-05T16:45:21.069Z,21.88
2022-11-05T16:47:47.767Z,21.86
2022-11-05T16:50:19.114Z,21.83
2022-11-05T16:52:46.338Z,21.84
2022-11-05T16:55:13.882Z,21.79
2022-11-05T16:57:43.452Z,21.77
2022-11-05T17:00:16.355Z,21.74
2022-11-05T17:02:43.174Z,21.74
2022-11-05T17:05:36.001Z,21.71
2022-11-05T17:08:03.457Z,21.70
2022-11-05T17:10:30.715Z,21.70
2022-11-05T17:12:57.411Z,21.67
2022-11-05T17:15:30.921Z,21.67
2022-11-05T17:17:58.679Z,21.64
2022-11-05T17:20:27.973Z,21.65
2022-11-05T17:22:55.245Z,21.65
2022-11-05T17:25:21.740Z,21.64
2022-11-05T17:27:48.383Z,21.62
2022-11-05T17:30:14.916Z,21.63
2022-11-05T17:32:41.534Z,21.62
2022-11-05T17:35:08.988Z,21.64
2022-11-05T17:37:36.086Z,21.63
2022-11-05T17:40:05.077Z,21.64
2022-11-05T17:42:31.517Z,21.61
2022-11-05T17:44:57.952Z,21.61
2022-11-05T17:47:26.308Z,21.62
2022-11-05T17:49:52.777Z,21.62
2022-11-05T17:52:19.197Z,21.65
2022-11-05T17:54:45.630Z,21.64
2022-11-05T17:57:12.045Z,21.64
2022-11-05T17:59:38.515Z,21.67
2022-11-05T18:02:05.025Z,21.69
2022-11-05T18:04:32.485Z,21.69
2022-11-05T18:06:58.931Z,21.69
2022-11-05T18:09:26.044Z,21.67
2022-11-05T18:11:52.663Z,21.67
2022-11-05T18:14:23.877Z,21.67
2022-11-05T18:16:51.281Z,21.65
2022-11-05T18:19:18.050Z,21.66
2022-11-05T18:21:44.526Z,21.64
2022-11-05T18:24:10.968Z,21.64
2022-11-05T18:26:37.440Z,21.62
2022-11-05T18:29:05.563Z,21.60
2022-11-05T18:31:32.005Z,21.59
2022-11-05T18:33:59.636Z,21.59
2022-11-05T18:36:29.613Z,21.57
2022-11-05T18:38:58.584Z,21.55
2022-11-05T18:41:25.326Z,21.54
2022-11-05T18:43:51.783Z,21.53
2022-11-05T18:46:43.070Z,21.53
2022-11-05T18:49:05.719Z,21.53
2022-11-05T18:51:32.299Z,21.53
2022-11-05T18:53:59.559Z,21.53
2022-11-05T18:56:26.047Z,21.52
2022-11-05T18:59:14.866Z,21.50
2022-11-05T19:01:40.597Z,21.54
2022-11-05T19:04:07.142Z,21.55
2022-11-05T19:06:34.784Z,21.56
2022-11-05T19:09:01.418Z,21.55
2022-11-05T19:11:27.991Z,21.56
2022-11-05T19:13:54.484Z,21.57
2022-11-05T19:16:23.421Z,21.59
2022-11-05T19:18:50.226Z,21.60
2022-11-05T19:21:20.384Z,21.60
2022-11-05T19:23:46.956Z,21.63
2022-11-05T19:26:16.308Z,21.65
2022-11-05T19:28:42.945Z,21.65
2022-11-05T19:31:15.405Z,21.67
2022-11-05T19:33:43.189Z,21.68
2022-11-05T19:36:10.750Z,21.70
2022-11-05T19:38:37.841Z,21.71
2022-11-05T19:41:07.966Z,21.72
2022-11-05T19:43:38.606Z,21.72
2022-11-05T19:46:10.014Z,21.72
2022-11-05T19:48:36.962Z,21.70
2022-11-05T19:51:08.011Z,21.70
2022-11-05T19:53:35.758Z,21.71
2022-11-05T19:56:10.680Z,21.69
2022-11-05T19:58:37.158Z,21.66
2022-11-05T20:01:03.652Z,21.64
2022-11-05T20:03:30.780Z,21.64
2022-11-05T20:06:16.584Z,21.62
2022-11-05T20:09:07.084Z,21.61
2022-11-05T20:11:31.492Z,21.59
2022-11-05T20:13:57.957Z,21.60
2022-11-05T20:16:32.199Z,21.59
2022-11-05T20:18:58.632Z,21.59
2022-11-05T20:21:25.084Z,21.58
2022-11-05T20:23:51.535Z,21.58
2022-11-05T20:26:17.986Z,21.59
2022-11-05T20:28:44.627Z,21.59
2022-11-05T20:31:13.973Z,21.57
2022-11-05T20:33:43.870Z,21.59
2022-11-05T20:36:14.834Z,21.60
2022-11-05T20:38:41.492Z,21.61
2022-11-05T20:41:09.921Z,21.59
2022-11-05T20:43:37.273Z,21.62
2022-11-05T20:46:04.394Z,21.59
2022-11-05T20:48:32.593Z,21.60
2022-11-05T20:50:59.489Z,21.60
2022-11-05T20:53:25.875Z,21.61
2022-11-05T20:55:52.359Z,21.61
2022-11-05T20:58:18.818Z,21.61
2022-11-05T21:00:51.235Z,21.63
2022-11-05T21:03:18.408Z,21.63
2022-11-05T21:05:50.355Z,21.63
2022-11-05T21:08:20.051Z,21.63
2022-11-05T21:10:51.066Z,21.64
2022-11-05T21:13:18.102Z,21.63
2022-11-05T21:15:50.204Z,21.64
2022-11-05T21:18:22.616Z,21.64
2022-11-05T21:20:49.252Z,21.65
2022-11-05T21:23:16.235Z,21.64
2022-11-05T21:25:44.185Z,21.64
2022-11-05T21:28:12.275Z,21.64
2022-11-05T21:30:47.497Z,21.64
2022-11-05T21:33:15.368Z,21.64
2022-11-05T21:35:44.039Z,21.65
2022-11-05T21:38:12.217Z,21.65
2022-11-05T21:40:39.130Z,21.64
2022-11-05T21:43:06.125Z,21.64
2022-11-05T21:45:32.795Z,21.64
2022-11-05T21:47:59.725Z,21.66
2022-11-05T21:50:44.781Z,21.65
2022-11-05T21:53:34.138Z,21.65
2022-11-05T21:56:23.459Z,21.65
2022-11-05T21:59:08.331Z,21.63
2022-11-05T22:01:34.879Z,21.63
2022-11-05T22:04:03.215Z,21.62
2022-11-05T22:06:33.181Z,21.63
2022-11-05T22:08:59.778Z,21.63
2022-11-05T22:11:26.207Z,21.62
2022-11-05T22:13:53.198Z,21.63
2022-11-05T22:16:19.711Z,21.63
2022-11-05T22:18:46.218Z,21.63
2022-11-05T22:21:18.164Z,21.62
2022-11-05T22:23:44.673Z,21.61
2022-11-05T22:26:11.322Z,21.63
2022-11-05T22:28:37.762Z,21.60
2022-11-05T22:31:04.218Z,21.58
2022-11-05T22:33:31.234Z,21.57
2022-11-05T22:35:57.739Z,21.54
2022-11-05T22:38:24.169Z,21.52
2022-11-05T22:40:50.580Z,21.50
2022-11-05T22:43:16.995Z,21.49
2022-11-05T22:45:43.825Z,21.46
2022-11-05T22:48:10.682Z,21.43
2022-11-05T22:50:37.435Z,21.43
2022-11-05T22:53:03.903Z,21.38
2022-11-05T22:55:30.500Z,21.38
2022-11-05T22:57:56.946Z,21.35
2022-11-05T23:00:34.632Z,21.33
2022-11-05T23:03:02.870Z,21.29
2022-11-05T23:05:30.003Z,21.25
2022-11-05T23:08:15.348Z,21.25
2022-11-05T23:11:00.603Z,21.25
2022-11-05T23:13:27.199Z,21.22
2022-11-05T23:16:12.147Z,21.20
2022-11-05T23:18:57.053Z,21.19
2022-11-05T23:21:41.936Z,21.18
2022-11-05T23:24:08.515Z,21.16
2022-11-05T23:26:52.564Z,21.13
2022-11-05T23:29:22.175Z,21.11
2022-11-05T23:32:07.598Z,21.10
2022-11-05T23:34:34.223Z,21.10
2022-11-05T23:37:19.230Z,21.07
2022-11-05T23:39:45.667Z,21.07
2022-11-05T23:42:30.880Z,21.05
2022-11-05T23:45:16.070Z,21.04
2022-11-05T23:48:01.539Z,21.02
2022-11-05T23:50:32.239Z,21.00
2022-11-05T23:53:02.157Z,21.00
2022-11-05T23:55:30.234Z,21.00
2022-11-05T23:57:56.876Z,20.98
